Albany, Minnesota
Current Conditions -  °F | °C
As of 3:53 AM on Tuesday 21 Oct 2014 (Local Time) from KD39 Reporting Station
Clear Clear  
Wind Chill: 32°   Ceiling: Unl
Heat Index: 36°   Visibility: 10mi
Dew Point: 35°   Wind: 5mph
Humidity: 97%   Direction: 90°E
Pressure: 30.13"   Gusts: NA
Location:  45.63°N, 94.57°W
Report Text: KD39 210853Z AUTO 09004KT 10SM CLR 02/02 A3013 RMK AO2 T00210016
Loading
Personal Weather Stations






























Interactive Weather Map New forecast layout! Learn more

10-Day Weather Forecast

Advertisements
Track Severe Weather on mobile